McMurdo, Antarctica

5:36 PM NZST on June 03, 2015 (GMT +1200)
McMurdo Station | | Change Station
CLOSE
Current Station
Personal Weather Station
Location: McMurdo,
Elevation: 60 ft
Nearby Weather Stations

Elev 60 ft 77.85 °S, 166.67 °E | Updated 7 seconds ago

Clear
Clear
-4.2 °F
Feels Like -20 °F
N
9.0
Wind Variable Wind from ENE
Gusts 11.0 mph

Today
High -- | Low -- °F
--% Chance of Precip.
Yesterday
High -- | Low -- °F
Precip. -- in
12:00 PM 12:00 PM
Full, 100% visible
Pressure 29.18 in
Visibility 6.2 miles
Clouds Mostly Cloudy 900 ft
Windchill -20 °F
Dew Point Not available.
Humidity Not available.
Rainfall -999.00 in
Snow Depth Not available.
UV 0 out of 12
Pollen Not available.
Air Quality Not available.
Flu Activity Not available.
SPECI NZPG 030525Z 12009KT 9999 IC BKN009 M34/M34 A2918 RMK GRID29009KT SDN/HDN HDP GRID N

More Conditions Fewer Conditions

Pressure 29.18 in
Visibility 6.2 miles
Clouds Mostly Cloudy 900 ft
Windchill -20 °F
Dew Point Not available.
Humidity Not available.
Rainfall -999.00 in
Snow Depth Not available.
UV 0 out of 12
Pollen Not available.
Air Quality Not available.
Flu Activity Not available.
SPECI NZPG 030525Z 12009KT 9999 IC BKN009 M34/M34 A2918 RMK GRID29009KT SDN/HDN HDP GRID N

More Conditions Fewer Conditions

10-Day Weather Forecast

×

Almanac

Astronomy

Jun. 03, 2015 Rise Set
Actual Time
Civil Twilight
Nautical Twilight
Astronomical Twilight
Moon
Length of Visible Light
Length of Day
Tomorrow will be .
, % of the Moon is Illuminated

Today's Extremes

Country Highs Country Lows

Community

WunderPhotos

Upload Photos

1,826,172 photos uploaded!

WunderBlogs® & News

Nearby

Air Quality

  Air Quality AQ Index Pollutant
Not available.

Snow Depth

Station Depth Elevation

Earthquake Activity

City Distance Mag. Time & Date
Minimum magnitude displayed is 2.5.

Coastal Water Temperatures

Place Temperature

Stations

Nearby Weather Stations

Station Location Temp. Windchill Dew Point Humidity Wind Precip. Elev Updated Type